sensor_id;sensor_type;location;lat;lon;timestamp;temperature;humidity
62991;DHT22;49084;48.204;16.202;2024-02-28T00:01:50;8.70;99.90
62991;DHT22;49084;48.204;16.202;2024-02-28T00:04:16;8.70;99.90
62991;DHT22;49084;48.204;16.202;2024-02-28T00:06:42;8.60;99.90
62991;DHT22;49084;48.204;16.202;2024-02-28T00:09:07;8.70;99.90
62991;DHT22;49084;48.204;16.202;2024-02-28T00:11:33;8.60;99.90
62991;DHT22;49084;48.204;16.202;2024-02-28T00:13:59;8.60;99.90
62991;DHT22;49084;48.204;16.202;2024-02-28T00:16:28;8.60;99.90
62991;DHT22;49084;48.204;16.202;2024-02-28T00:18:53;8.70;99.90
62991;DHT22;49084;48.204;16.202;2024-02-28T00:21:19;8.60;99.90
62991;DHT22;49084;48.204;16.202;2024-02-28T00:23:45;8.60;99.90
62991;DHT22;49084;48.204;16.202;2024-02-28T00:26:12;8.60;99.90
62991;DHT22;49084;48.204;16.202;2024-02-28T00:28:37;8.60;99.90
62991;DHT22;49084;48.204;16.202;2024-02-28T00:31:03;8.50;99.90
62991;DHT22;49084;48.204;16.202;2024-02-28T00:33:29;8.50;99.90
62991;DHT22;49084;48.204;16.202;2024-02-28T00:35:54;8.50;99.90
62991;DHT22;49084;48.204;16.202;2024-02-28T00:38:20;8.50;99.90
62991;DHT22;49084;48.204;16.202;2024-02-28T00:40:46;8.40;99.90
62991;DHT22;49084;48.204;16.202;2024-02-28T00:43:11;8.50;99.90
62991;DHT22;49084;48.204;16.202;2024-02-28T00:45:37;8.50;99.90
62991;DHT22;49084;48.204;16.202;2024-02-28T00:48:03;8.50;99.90
62991;DHT22;49084;48.204;16.202;2024-02-28T00:50:29;8.50;99.90
62991;DHT22;49084;48.204;16.202;2024-02-28T00:52:55;8.50;99.90
62991;DHT22;49084;48.204;16.202;2024-02-28T00:55:20;8.50;99.90
62991;DHT22;49084;48.204;16.202;2024-02-28T00:57:46;8.50;99.90
62991;DHT22;49084;48.204;16.202;2024-02-28T01:00:12;8.50;99.90
62991;DHT22;49084;48.204;16.202;2024-02-28T01:02:37;8.50;99.90
62991;DHT22;49084;48.204;16.202;2024-02-28T01:05:03;8.50;99.90
62991;DHT22;49084;48.204;16.202;2024-02-28T01:07:29;8.50;99.90
62991;DHT22;49084;48.204;16.202;2024-02-28T01:09:55;8.50;99.90
62991;DHT22;49084;48.204;16.202;2024-02-28T01:12:20;8.50;99.90
62991;DHT22;49084;48.204;16.202;2024-02-28T01:14:46;8.50;99.90
62991;DHT22;49084;48.204;16.202;2024-02-28T01:17:11;8.50;99.90
62991;DHT22;49084;48.204;16.202;2024-02-28T01:19:37;8.50;99.90
62991;DHT22;49084;48.204;16.202;2024-02-28T01:22:03;8.60;99.90
62991;DHT22;49084;48.204;16.202;2024-02-28T01:24:29;8.60;99.90
62991;DHT22;49084;48.204;16.202;2024-02-28T01:26:54;8.60;99.90
62991;DHT22;49084;48.204;16.202;2024-02-28T01:29:20;8.60;99.90
62991;DHT22;49084;48.204;16.202;2024-02-28T01:31:46;8.60;99.90
62991;DHT22;49084;48.204;16.202;2024-02-28T01:34:11;8.70;99.90
62991;DHT22;49084;48.204;16.202;2024-02-28T01:36:37;8.70;99.90
62991;DHT22;49084;48.204;16.202;2024-02-28T01:39:02;8.60;99.90
62991;DHT22;49084;48.204;16.202;2024-02-28T01:41:28;8.60;99.90
62991;DHT22;49084;48.204;16.202;2024-02-28T01:43:54;8.60;99.90
62991;DHT22;49084;48.204;16.202;2024-02-28T01:46:25;8.60;99.90
62991;DHT22;49084;48.204;16.202;2024-02-28T01:48:51;8.60;99.90
62991;DHT22;49084;48.204;16.202;2024-02-28T01:51:17;8.60;99.90
62991;DHT22;49084;48.204;16.202;2024-02-28T01:53:44;8.60;99.90
62991;DHT22;49084;48.204;16.202;2024-02-28T01:56:12;8.60;99.90
62991;DHT22;49084;48.204;16.202;2024-02-28T01:58:39;8.60;99.90
62991;DHT22;49084;48.204;16.202;2024-02-28T02:01:06;8.60;99.90
62991;DHT22;49084;48.204;16.202;2024-02-28T02:03:32;8.70;99.90
62991;DHT22;49084;48.204;16.202;2024-02-28T02:06:01;8.70;99.90
62991;DHT22;49084;48.204;16.202;2024-02-28T02:08:27;8.80;99.90
62991;DHT22;49084;48.204;16.202;2024-02-28T02:10:53;8.90;99.90
62991;DHT22;49084;48.204;16.202;2024-02-28T02:13:18;8.90;99.90
62991;DHT22;49084;48.204;16.202;2024-02-28T02:15:44;8.90;99.90
62991;DHT22;49084;48.204;16.202;2024-02-28T02:18:10;9.00;99.90
62991;DHT22;49084;48.204;16.202;2024-02-28T02:20:38;9.00;99.90
62991;DHT22;49084;48.204;16.202;2024-02-28T02:23:08;9.00;99.90
62991;DHT22;49084;48.204;16.202;2024-02-28T02:25:34;9.10;99.90
62991;DHT22;49084;48.204;16.202;2024-02-28T02:28:00;9.10;99.90
62991;DHT22;49084;48.204;16.202;2024-02-28T02:30:25;9.10;99.90
62991;DHT22;49084;48.204;16.202;2024-02-28T02:32:51;9.10;99.90
62991;DHT22;49084;48.204;16.202;2024-02-28T02:35:16;9.10;99.90
62991;DHT22;49084;48.204;16.202;2024-02-28T02:37:45;9.10;99.90
62991;DHT22;49084;48.204;16.202;2024-02-28T02:40:12;9.10;99.90
62991;DHT22;49084;48.204;16.202;2024-02-28T02:42:37;9.10;99.90
62991;DHT22;49084;48.204;16.202;2024-02-28T02:45:03;9.10;99.90
62991;DHT22;49084;48.204;16.202;2024-02-28T02:47:29;9.00;99.90
62991;DHT22;49084;48.204;16.202;2024-02-28T02:49:56;9.00;99.90
62991;DHT22;49084;48.204;16.202;2024-02-28T02:52:21;8.90;99.90
62991;DHT22;49084;48.204;16.202;2024-02-28T02:54:47;8.90;99.90
62991;DHT22;49084;48.204;16.202;2024-02-28T02:57:13;8.90;99.90
62991;DHT22;49084;48.204;16.202;2024-02-28T02:59:38;8.90;99.90
62991;DHT22;49084;48.204;16.202;2024-02-28T03:02:04;8.90;99.90
62991;DHT22;49084;48.204;16.202;2024-02-28T03:04:29;8.80;99.90
62991;DHT22;49084;48.204;16.202;2024-02-28T03:06:55;8.80;99.90
62991;DHT22;49084;48.204;16.202;2024-02-28T03:09:21;8.70;99.90
62991;DHT22;49084;48.204;16.202;2024-02-28T03:11:46;8.70;99.90
62991;DHT22;49084;48.204;16.202;2024-02-28T03:14:12;8.70;99.90
62991;DHT22;49084;48.204;16.202;2024-02-28T03:16:44;8.60;99.90
62991;DHT22;49084;48.204;16.202;2024-02-28T03:19:11;8.60;99.90
62991;DHT22;49084;48.204;16.202;2024-02-28T03:21:36;8.50;99.90
62991;DHT22;49084;48.204;16.202;2024-02-28T03:24:02;8.50;99.90
62991;DHT22;49084;48.204;16.202;2024-02-28T03:26:28;8.50;99.90
62991;DHT22;49084;48.204;16.202;2024-02-28T03:28:53;8.40;99.90
62991;DHT22;49084;48.204;16.202;2024-02-28T03:31:19;8.40;99.90
62991;DHT22;49084;48.204;16.202;2024-02-28T03:33:44;8.30;99.90
62991;DHT22;49084;48.204;16.202;2024-02-28T03:36:12;8.30;99.90
62991;DHT22;49084;48.204;16.202;2024-02-28T03:38:38;8.20;99.90
62991;DHT22;49084;48.204;16.202;2024-02-28T03:41:05;8.20;99.90
62991;DHT22;49084;48.204;16.202;2024-02-28T03:43:30;8.20;99.90
62991;DHT22;49084;48.204;16.202;2024-02-28T03:45:56;8.20;99.90
62991;DHT22;49084;48.204;16.202;2024-02-28T03:48:22;8.20;99.90
62991;DHT22;49084;48.204;16.202;2024-02-28T03:50:47;8.10;99.90
62991;DHT22;49084;48.204;16.202;2024-02-28T03:53:13;8.10;99.90
62991;DHT22;49084;48.204;16.202;2024-02-28T03:55:39;8.10;99.90
62991;DHT22;49084;48.204;16.202;2024-02-28T03:58:04;8.00;99.90
62991;DHT22;49084;48.204;16.202;2024-02-28T04:00:32;8.00;99.90
62991;DHT22;49084;48.204;16.202;2024-02-28T04:02:58;8.00;99.90
62991;DHT22;49084;48.204;16.202;2024-02-28T04:05:23;8.00;99.90
62991;DHT22;49084;48.204;16.202;2024-02-28T04:07:49;7.90;99.90
62991;DHT22;49084;48.204;16.202;2024-02-28T04:10:14;7.90;99.90
62991;DHT22;49084;48.204;16.202;2024-02-28T04:12:43;7.90;99.90
62991;DHT22;49084;48.204;16.202;2024-02-28T04:15:13;7.80;99.90
62991;DHT22;49084;48.204;16.202;2024-02-28T04:17:40;7.80;99.90
62991;DHT22;49084;48.204;16.202;2024-02-28T04:20:10;7.70;99.90
62991;DHT22;49084;48.204;16.202;2024-02-28T04:22:35;7.70;99.90
62991;DHT22;49084;48.204;16.202;2024-02-28T04:25:01;7.70;99.90
62991;DHT22;49084;48.204;16.202;2024-02-28T04:27:27;7.60;99.90
62991;DHT22;49084;48.204;16.202;2024-02-28T04:29:52;7.60;99.90
62991;DHT22;49084;48.204;16.202;2024-02-28T04:32:18;7.50;99.90
62991;DHT22;49084;48.204;16.202;2024-02-28T04:34:44;7.50;99.90
62991;DHT22;49084;48.204;16.202;2024-02-28T04:37:09;7.50;99.90
62991;DHT22;49084;48.204;16.202;2024-02-28T04:39:35;7.50;99.90
62991;DHT22;49084;48.204;16.202;2024-02-28T04:42:00;7.40;99.90
62991;DHT22;49084;48.204;16.202;2024-02-28T04:44:26;7.40;99.90
62991;DHT22;49084;48.204;16.202;2024-02-28T04:46:52;7.40;99.90
62991;DHT22;49084;48.204;16.202;2024-02-28T04:49:17;7.30;99.90
62991;DHT22;49084;48.204;16.202;2024-02-28T04:51:43;7.30;99.90
62991;DHT22;49084;48.204;16.202;2024-02-28T04:54:09;7.30;99.90
62991;DHT22;49084;48.204;16.202;2024-02-28T04:56:42;7.20;99.90
62991;DHT22;49084;48.204;16.202;2024-02-28T04:59:09;7.20;99.90
62991;DHT22;49084;48.204;16.202;2024-02-28T05:01:36;7.20;99.90
62991;DHT22;49084;48.204;16.202;2024-02-28T05:04:05;7.10;99.90
62991;DHT22;49084;48.204;16.202;2024-02-28T05:06:30;7.10;99.90
62991;DHT22;49084;48.204;16.202;2024-02-28T05:08:56;7.10;99.90
62991;DHT22;49084;48.204;16.202;2024-02-28T05:11:22;7.10;99.90
62991;DHT22;49084;48.204;16.202;2024-02-28T05:13:47;7.00;99.90
62991;DHT22;49084;48.204;16.202;2024-02-28T05:16:13;7.10;99.90
62991;DHT22;49084;48.204;16.202;2024-02-28T05:18:39;7.00;99.90
62991;DHT22;49084;48.204;16.202;2024-02-28T05:21:05;7.00;99.90
62991;DHT22;49084;48.204;16.202;2024-02-28T05:23:30;7.00;99.90
62991;DHT22;49084;48.204;16.202;2024-02-28T05:25:56;6.90;99.90
62991;DHT22;49084;48.204;16.202;2024-02-28T05:28:23;6.90;99.90
62991;DHT22;49084;48.204;16.202;2024-02-28T05:30:49;6.90;99.90
62991;DHT22;49084;48.204;16.202;2024-02-28T05:33:15;6.90;99.90
62991;DHT22;49084;48.204;16.202;2024-02-28T05:35:40;6.90;99.90
62991;DHT22;49084;48.204;16.202;2024-02-28T05:38:06;6.90;99.90
62991;DHT22;49084;48.204;16.202;2024-02-28T05:40:32;6.90;99.90
62991;DHT22;49084;48.204;16.202;2024-02-28T05:42:57;6.90;99.90
62991;DHT22;49084;48.204;16.202;2024-02-28T05:45:23;6.90;99.90
62991;DHT22;49084;48.204;16.202;2024-02-28T05:47:49;6.90;99.90
62991;DHT22;49084;48.204;16.202;2024-02-28T05:50:14;6.90;99.90
62991;DHT22;49084;48.204;16.202;2024-02-28T05:52:43;6.90;99.90
62991;DHT22;49084;48.204;16.202;2024-02-28T05:55:09;6.90;99.90
62991;DHT22;49084;48.204;16.202;2024-02-28T05:57:34;6.90;99.90
62991;DHT22;49084;48.204;16.202;2024-02-28T06:00:00;6.90;99.90
62991;DHT22;49084;48.204;16.202;2024-02-28T06:02:26;6.90;99.90
62991;DHT22;49084;48.204;16.202;2024-02-28T06:04:51;6.90;99.90
62991;DHT22;49084;48.204;16.202;2024-02-28T06:07:18;6.90;99.90
62991;DHT22;49084;48.204;16.202;2024-02-28T06:09:43;7.00;99.90
62991;DHT22;49084;48.204;16.202;2024-02-28T06:12:09;7.00;99.90
62991;DHT22;49084;48.204;16.202;2024-02-28T06:14:34;7.10;99.90
62991;DHT22;49084;48.204;16.202;2024-02-28T06:17:00;7.20;99.90
62991;DHT22;49084;48.204;16.202;2024-02-28T06:19:26;7.20;99.90
62991;DHT22;49084;48.204;16.202;2024-02-28T06:21:51;7.20;99.90
62991;DHT22;49084;48.204;16.202;2024-02-28T06:24:17;7.30;99.90
62991;DHT22;49084;48.204;16.202;2024-02-28T06:26:42;7.30;99.90
62991;DHT22;49084;48.204;16.202;2024-02-28T06:29:08;7.30;99.90
62991;DHT22;49084;48.204;16.202;2024-02-28T06:31:34;7.40;99.90
62991;DHT22;49084;48.204;16.202;2024-02-28T06:34:00;7.40;99.90
62991;DHT22;49084;48.204;16.202;2024-02-28T06:36:27;7.40;99.90
62991;DHT22;49084;48.204;16.202;2024-02-28T06:38:53;7.50;99.90
62991;DHT22;49084;48.204;16.202;2024-02-28T06:41:18;7.50;99.90
62991;DHT22;49084;48.204;16.202;2024-02-28T06:43:44;7.50;99.90
62991;DHT22;49084;48.204;16.202;2024-02-28T06:46:11;7.60;99.90
62991;DHT22;49084;48.204;16.202;2024-02-28T06:48:36;7.60;99.90
62991;DHT22;49084;48.204;16.202;2024-02-28T06:51:02;7.70;99.90
62991;DHT22;49084;48.204;16.202;2024-02-28T06:53:28;7.70;99.90
62991;DHT22;49084;48.204;16.202;2024-02-28T06:55:53;7.70;99.90
62991;DHT22;49084;48.204;16.202;2024-02-28T06:58:19;7.70;99.90
62991;DHT22;49084;48.204;16.202;2024-02-28T07:00:45;7.80;99.90
62991;DHT22;49084;48.204;16.202;2024-02-28T07:03:10;7.80;99.90
62991;DHT22;49084;48.204;16.202;2024-02-28T07:05:36;7.80;99.90
62991;DHT22;49084;48.204;16.202;2024-02-28T07:08:02;7.90;99.90
62991;DHT22;49084;48.204;16.202;2024-02-28T07:10:27;7.90;99.90
62991;DHT22;49084;48.204;16.202;2024-02-28T07:12:53;8.00;99.90
62991;DHT22;49084;48.204;16.202;2024-02-28T07:15:18;8.00;99.90
62991;DHT22;49084;48.204;16.202;2024-02-28T07:17:47;8.00;99.90
62991;DHT22;49084;48.204;16.202;2024-02-28T07:20:13;8.00;99.90
62991;DHT22;49084;48.204;16.202;2024-02-28T07:22:38;8.10;99.90
62991;DHT22;49084;48.204;16.202;2024-02-28T07:25:05;8.10;99.90
62991;DHT22;49084;48.204;16.202;2024-02-28T07:27:31;8.10;99.90
62991;DHT22;49084;48.204;16.202;2024-02-28T07:29:56;8.20;99.90
62991;DHT22;49084;48.204;16.202;2024-02-28T07:32:22;8.20;99.90
62991;DHT22;49084;48.204;16.202;2024-02-28T07:34:48;8.30;99.90
62991;DHT22;49084;48.204;16.202;2024-02-28T07:37:14;8.30;99.90
62991;DHT22;49084;48.204;16.202;2024-02-28T07:39:40;8.30;99.90
62991;DHT22;49084;48.204;16.202;2024-02-28T07:42:05;8.30;99.90
62991;DHT22;49084;48.204;16.202;2024-02-28T07:44:31;8.40;99.90
62991;DHT22;49084;48.204;16.202;2024-02-28T07:47:00;8.40;99.90
62991;DHT22;49084;48.204;16.202;2024-02-28T07:49:25;8.40;99.90
62991;DHT22;49084;48.204;16.202;2024-02-28T07:51:51;8.50;99.90
62991;DHT22;49084;48.204;16.202;2024-02-28T07:54:17;8.50;99.90
62991;DHT22;49084;48.204;16.202;2024-02-28T07:56:43;8.70;99.90
62991;DHT22;49084;48.204;16.202;2024-02-28T07:59:09;8.70;99.90
62991;DHT22;49084;48.204;16.202;2024-02-28T08:01:35;8.70;99.90
62991;DHT22;49084;48.204;16.202;2024-02-28T08:04:01;8.80;99.90
62991;DHT22;49084;48.204;16.202;2024-02-28T08:06:27;8.90;99.90
62991;DHT22;49084;48.204;16.202;2024-02-28T08:08:53;9.00;99.90
62991;DHT22;49084;48.204;16.202;2024-02-28T08:11:18;9.10;99.90
62991;DHT22;49084;48.204;16.202;2024-02-28T08:13:44;9.20;99.90
62991;DHT22;49084;48.204;16.202;2024-02-28T08:16:10;9.40;99.90
62991;DHT22;49084;48.204;16.202;2024-02-28T08:18:36;9.50;99.90
62991;DHT22;49084;48.204;16.202;2024-02-28T08:21:01;9.60;99.90
62991;DHT22;49084;48.204;16.202;2024-02-28T08:23:29;9.70;99.90
62991;DHT22;49084;48.204;16.202;2024-02-28T08:25:55;9.70;99.90
62991;DHT22;49084;48.204;16.202;2024-02-28T08:28:21;9.70;99.90
62991;DHT22;49084;48.204;16.202;2024-02-28T08:30:46;9.90;99.90
62991;DHT22;49084;48.204;16.202;2024-02-28T08:33:12;10.00;99.90
62991;DHT22;49084;48.204;16.202;2024-02-28T08:35:37;10.30;99.90
62991;DHT22;49084;48.204;16.202;2024-02-28T08:38:03;10.40;99.90
62991;DHT22;49084;48.204;16.202;2024-02-28T08:40:29;10.30;99.90
62991;DHT22;49084;48.204;16.202;2024-02-28T08:42:55;10.00;99.90
62991;DHT22;49084;48.204;16.202;2024-02-28T08:45:22;10.00;99.90
62991;DHT22;49084;48.204;16.202;2024-02-28T08:47:48;10.10;99.90
62991;DHT22;49084;48.204;16.202;2024-02-28T08:50:14;10.00;99.90
62991;DHT22;49084;48.204;16.202;2024-02-28T08:52:39;10.20;99.90
62991;DHT22;49084;48.204;16.202;2024-02-28T08:55:05;10.30;99.90
62991;DHT22;49084;48.204;16.202;2024-02-28T08:57:31;10.50;99.90
62991;DHT22;49084;48.204;16.202;2024-02-28T08:59:57;10.60;99.90
62991;DHT22;49084;48.204;16.202;2024-02-28T09:02:23;10.80;99.90
62991;DHT22;49084;48.204;16.202;2024-02-28T09:04:48;10.90;99.90
62991;DHT22;49084;48.204;16.202;2024-02-28T09:07:20;11.10;99.90
62991;DHT22;49084;48.204;16.202;2024-02-28T09:09:45;11.00;99.90
62991;DHT22;49084;48.204;16.202;2024-02-28T09:12:11;11.00;99.90
62991;DHT22;49084;48.204;16.202;2024-02-28T09:14:37;11.00;99.90
62991;DHT22;49084;48.204;16.202;2024-02-28T09:17:04;11.00;99.90
62991;DHT22;49084;48.204;16.202;2024-02-28T09:19:30;11.00;99.90
62991;DHT22;49084;48.204;16.202;2024-02-28T09:21:56;11.00;99.90
62991;DHT22;49084;48.204;16.202;2024-02-28T09:24:23;11.10;99.90
62991;DHT22;49084;48.204;16.202;2024-02-28T09:26:48;11.20;99.90
62991;DHT22;49084;48.204;16.202;2024-02-28T09:29:14;11.60;99.90
62991;DHT22;49084;48.204;16.202;2024-02-28T09:31:40;11.90;99.90
62991;DHT22;49084;48.204;16.202;2024-02-28T09:34:05;12.10;99.90
62991;DHT22;49084;48.204;16.202;2024-02-28T09:36:44;11.90;99.90
62991;DHT22;49084;48.204;16.202;2024-02-28T09:39:15;12.00;99.90
62991;DHT22;49084;48.204;16.202;2024-02-28T09:41:41;12.40;99.90
62991;DHT22;49084;48.204;16.202;2024-02-28T09:44:07;13.20;99.90
62991;DHT22;49084;48.204;16.202;2024-02-28T09:46:34;13.80;99.90
62991;DHT22;49084;48.204;16.202;2024-02-28T09:49:03;14.30;99.20
62991;DHT22;49084;48.204;16.202;2024-02-28T09:51:34;14.40;98.40
62991;DHT22;49084;48.204;16.202;2024-02-28T09:54:01;14.20;97.80
62991;DHT22;49084;48.204;16.202;2024-02-28T09:56:27;13.80;98.10
62991;DHT22;49084;48.204;16.202;2024-02-28T09:58:54;13.70;98.60
62991;DHT22;49084;48.204;16.202;2024-02-28T10:01:21;13.60;98.70
62991;DHT22;49084;48.204;16.202;2024-02-28T10:03:48;13.60;98.70
62991;DHT22;49084;48.204;16.202;2024-02-28T10:06:16;13.70;98.70
62991;DHT22;49084;48.204;16.202;2024-02-28T10:08:41;13.80;98.50
62991;DHT22;49084;48.204;16.202;2024-02-28T10:11:07;13.30;98.90
62991;DHT22;49084;48.204;16.202;2024-02-28T10:13:32;13.10;99.60
62991;DHT22;49084;48.204;16.202;2024-02-28T10:15:58;13.40;99.40
62991;DHT22;49084;48.204;16.202;2024-02-28T10:18:25;13.80;98.60
62991;DHT22;49084;48.204;16.202;2024-02-28T10:20:51;13.90;98.30
62991;DHT22;49084;48.204;16.202;2024-02-28T10:23:17;14.00;98.20
62991;DHT22;49084;48.204;16.202;2024-02-28T10:25:46;14.10;97.80
62991;DHT22;49084;48.204;16.202;2024-02-28T10:28:12;14.60;97.50
62991;DHT22;49084;48.204;16.202;2024-02-28T10:30:42;14.90;96.20
62991;DHT22;49084;48.204;16.202;2024-02-28T10:33:15;15.20;95.90
62991;DHT22;49084;48.204;16.202;2024-02-28T10:35:42;15.20;95.70
62991;DHT22;49084;48.204;16.202;2024-02-28T10:38:13;15.70;95.30
62991;DHT22;49084;48.204;16.202;2024-02-28T10:40:42;16.30;93.70
62991;DHT22;49084;48.204;16.202;2024-02-28T10:43:09;16.50;92.30
62991;DHT22;49084;48.204;16.202;2024-02-28T10:45:38;16.20;92.80
62991;DHT22;49084;48.204;16.202;2024-02-28T10:48:05;16.40;92.70
62991;DHT22;49084;48.204;16.202;2024-02-28T10:50:32;16.20;91.90
62991;DHT22;49084;48.204;16.202;2024-02-28T10:53:01;15.50;92.80
62991;DHT22;49084;48.204;16.202;2024-02-28T10:55:33;14.30;93.60
62991;DHT22;49084;48.204;16.202;2024-02-28T10:58:07;13.40;95.60
62991;DHT22;49084;48.204;16.202;2024-02-28T11:00:34;12.70;97.40
62991;DHT22;49084;48.204;16.202;2024-02-28T11:03:01;12.40;98.30
62991;DHT22;49084;48.204;16.202;2024-02-28T11:05:44;12.20;99.40
62991;DHT22;49084;48.204;16.202;2024-02-28T11:08:23;12.50;99.20
62991;DHT22;49084;48.204;16.202;2024-02-28T11:10:56;12.60;98.60
62991;DHT22;49084;48.204;16.202;2024-02-28T11:13:23;12.80;98.50
62991;DHT22;49084;48.204;16.202;2024-02-28T11:15:50;12.60;99.10
62991;DHT22;49084;48.204;16.202;2024-02-28T11:18:16;12.70;98.70
62991;DHT22;49084;48.204;16.202;2024-02-28T11:20:43;12.40;99.00
62991;DHT22;49084;48.204;16.202;2024-02-28T11:23:11;12.40;99.20
62991;DHT22;49084;48.204;16.202;2024-02-28T11:25:37;12.40;99.40
62991;DHT22;49084;48.204;16.202;2024-02-28T11:28:04;12.50;99.30
62991;DHT22;49084;48.204;16.202;2024-02-28T11:30:29;12.60;99.10
62991;DHT22;49084;48.204;16.202;2024-02-28T11:32:56;13.20;99.00
62991;DHT22;49084;48.204;16.202;2024-02-28T11:35:25;13.80;98.10
62991;DHT22;49084;48.204;16.202;2024-02-28T11:37:50;14.30;97.20
62991;DHT22;49084;48.204;16.202;2024-02-28T11:40:19;14.50;96.40
62991;DHT22;49084;48.204;16.202;2024-02-28T11:42:44;14.90;95.40
62991;DHT22;49084;48.204;16.202;2024-02-28T11:45:10;14.90;95.10
62991;DHT22;49084;48.204;16.202;2024-02-28T11:47:36;15.70;95.00
62991;DHT22;49084;48.204;16.202;2024-02-28T11:50:02;16.10;93.50
62991;DHT22;49084;48.204;16.202;2024-02-28T11:52:33;15.90;93.30
62991;DHT22;49084;48.204;16.202;2024-02-28T11:54:59;16.10;93.30
62991;DHT22;49084;48.204;16.202;2024-02-28T11:57:25;16.60;92.20
62991;DHT22;49084;48.204;16.202;2024-02-28T11:59:52;17.30;90.80
62991;DHT22;49084;48.204;16.202;2024-02-28T12:02:18;17.10;90.30
62991;DHT22;49084;48.204;16.202;2024-02-28T12:04:44;17.10;90.10
62991;DHT22;49084;48.204;16.202;2024-02-28T12:07:11;17.20;89.90
62991;DHT22;49084;48.204;16.202;2024-02-28T12:09:36;17.00;88.00
62991;DHT22;49084;48.204;16.202;2024-02-28T12:12:03;16.80;88.50
62991;DHT22;49084;48.204;16.202;2024-02-28T12:14:31;16.70;88.20
62991;DHT22;49084;48.204;16.202;2024-02-28T12:16:58;15.80;90.00
62991;DHT22;49084;48.204;16.202;2024-02-28T12:19:24;15.30;90.50
62991;DHT22;49084;48.204;16.202;2024-02-28T12:21:49;14.80;91.80
62991;DHT22;49084;48.204;16.202;2024-02-28T12:24:15;14.70;92.10
62991;DHT22;49084;48.204;16.202;2024-02-28T12:26:41;15.00;92.00
62991;DHT22;49084;48.204;16.202;2024-02-28T12:29:07;14.90;91.80
62991;DHT22;49084;48.204;16.202;2024-02-28T12:31:32;15.10;91.70
62991;DHT22;49084;48.204;16.202;2024-02-28T12:33:58;14.80;91.60
62991;DHT22;49084;48.204;16.202;2024-02-28T12:36:24;14.70;91.90
62991;DHT22;49084;48.204;16.202;2024-02-28T12:38:50;14.70;92.10
62991;DHT22;49084;48.204;16.202;2024-02-28T12:41:16;14.60;92.50
62991;DHT22;49084;48.204;16.202;2024-02-28T12:43:42;15.10;92.40
62991;DHT22;49084;48.204;16.202;2024-02-28T12:46:08;15.50;91.60
62991;DHT22;49084;48.204;16.202;2024-02-28T12:48:37;15.40;91.50
62991;DHT22;49084;48.204;16.202;2024-02-28T12:51:04;14.90;91.80
62991;DHT22;49084;48.204;16.202;2024-02-28T12:53:30;14.90;92.20
62991;DHT22;49084;48.204;16.202;2024-02-28T12:55:56;15.10;92.00
62991;DHT22;49084;48.204;16.202;2024-02-28T12:58:22;14.80;92.10
62991;DHT22;49084;48.204;16.202;2024-02-28T13:00:49;14.50;92.70
62991;DHT22;49084;48.204;16.202;2024-02-28T13:03:14;14.60;93.10
62991;DHT22;49084;48.204;16.202;2024-02-28T13:05:41;14.70;93.00
62991;DHT22;49084;48.204;16.202;2024-02-28T13:08:07;14.20;93.60
62991;DHT22;49084;48.204;16.202;2024-02-28T13:10:33;14.20;94.00
62991;DHT22;49084;48.204;16.202;2024-02-28T13:13:06;14.10;94.40
62991;DHT22;49084;48.204;16.202;2024-02-28T13:15:33;14.00;94.90
62991;DHT22;49084;48.204;16.202;2024-02-28T13:17:58;14.10;95.10
62991;DHT22;49084;48.204;16.202;2024-02-28T13:20:24;14.20;95.10
62991;DHT22;49084;48.204;16.202;2024-02-28T13:22:50;14.40;94.80
62991;DHT22;49084;48.204;16.202;2024-02-28T13:25:16;14.80;94.40
62991;DHT22;49084;48.204;16.202;2024-02-28T13:27:45;14.70;94.00
62991;DHT22;49084;48.204;16.202;2024-02-28T13:30:11;14.40;94.50
62991;DHT22;49084;48.204;16.202;2024-02-28T13:32:37;14.20;94.90
62991;DHT22;49084;48.204;16.202;2024-02-28T13:35:03;14.30;95.00
62991;DHT22;49084;48.204;16.202;2024-02-28T13:37:29;14.50;94.90
62991;DHT22;49084;48.204;16.202;2024-02-28T13:39:54;14.90;94.50
62991;DHT22;49084;48.204;16.202;2024-02-28T13:42:20;15.00;94.70
62991;DHT22;49084;48.204;16.202;2024-02-28T13:44:46;15.00;94.40
62991;DHT22;49084;48.204;16.202;2024-02-28T13:47:12;14.80;94.50
62991;DHT22;49084;48.204;16.202;2024-02-28T13:49:41;14.60;94.50
62991;DHT22;49084;48.204;16.202;2024-02-28T13:52:06;14.60;94.80
62991;DHT22;49084;48.204;16.202;2024-02-28T13:54:32;14.90;94.90
62991;DHT22;49084;48.204;16.202;2024-02-28T13:56:58;14.70;94.60
62991;DHT22;49084;48.204;16.202;2024-02-28T13:59:23;14.60;94.80
62991;DHT22;49084;48.204;16.202;2024-02-28T14:01:50;14.40;94.50
62991;DHT22;49084;48.204;16.202;2024-02-28T14:04:15;14.20;94.90
62991;DHT22;49084;48.204;16.202;2024-02-28T14:06:41;14.00;95.60
62991;DHT22;49084;48.204;16.202;2024-02-28T14:09:07;13.70;95.50
62991;DHT22;49084;48.204;16.202;2024-02-28T14:11:32;13.20;96.20
62991;DHT22;49084;48.204;16.202;2024-02-28T14:13:58;12.90;97.00
62991;DHT22;49084;48.204;16.202;2024-02-28T14:16:24;12.80;97.70
62991;DHT22;49084;48.204;16.202;2024-02-28T14:18:50;12.50;98.10
62991;DHT22;49084;48.204;16.202;2024-02-28T14:21:16;12.40;99.00
62991;DHT22;49084;48.204;16.202;2024-02-28T14:23:42;12.50;99.30
62991;DHT22;49084;48.204;16.202;2024-02-28T14:26:08;12.40;99.70
62991;DHT22;49084;48.204;16.202;2024-02-28T14:28:34;12.60;99.30
62991;DHT22;49084;48.204;16.202;2024-02-28T14:31:00;12.50;99.30
62991;DHT22;49084;48.204;16.202;2024-02-28T14:33:25;12.60;99.30
62991;DHT22;49084;48.204;16.202;2024-02-28T14:35:51;12.50;99.40
62991;DHT22;49084;48.204;16.202;2024-02-28T14:38:17;12.50;99.40
62991;DHT22;49084;48.204;16.202;2024-02-28T14:43:09;12.30;99.20
62991;DHT22;49084;48.204;16.202;2024-02-28T14:45:35;12.30;99.90
62991;DHT22;49084;48.204;16.202;2024-02-28T14:48:01;12.30;99.90
62991;DHT22;49084;48.204;16.202;2024-02-28T14:50:27;12.10;99.90
62991;DHT22;49084;48.204;16.202;2024-02-28T14:52:53;11.90;99.90
62991;DHT22;49084;48.204;16.202;2024-02-28T14:55:18;11.90;99.90
62991;DHT22;49084;48.204;16.202;2024-02-28T14:57:44;12.10;99.90
62991;DHT22;49084;48.204;16.202;2024-02-28T15:00:10;12.10;99.90
62991;DHT22;49084;48.204;16.202;2024-02-28T15:02:42;12.20;99.90
62991;DHT22;49084;48.204;16.202;2024-02-28T15:05:09;12.30;99.90
62991;DHT22;49084;48.204;16.202;2024-02-28T15:07:35;12.20;99.90
62991;DHT22;49084;48.204;16.202;2024-02-28T15:10:07;12.10;99.90
62991;DHT22;49084;48.204;16.202;2024-02-28T15:12:34;12.00;99.90
62991;DHT22;49084;48.204;16.202;2024-02-28T15:15:00;11.80;99.90
62991;DHT22;49084;48.204;16.202;2024-02-28T15:17:28;11.60;99.90
62991;DHT22;49084;48.204;16.202;2024-02-28T15:19:53;11.50;99.90
62991;DHT22;49084;48.204;16.202;2024-02-28T15:22:19;11.50;99.90